Spokane, WA (99260)

9:22 AM PDT on September 16, 2014 (GMT -0700)
Town and Country | Change Station
CLOSE
Current Station
Personal Weather Station
Location: Spokane, WA
Elevation: 2060 ft
Nearby Weather Stations

Elev 2060 ft 47.71 °N, 117.44 °W | Updated 2 minutes ago

Partly Cloudy
Partly Cloudy
59.3 °F
Feels Like 59.3 °F
N
1.0
Wind Variable Wind from NE
Gusts 1.0 mph

Today
High -- | Low -- °F
--% Chance of Precip.
Yesterday
High -- | Low -- °F
Precip. -- in
6:28 AM 6:59 PM
Last Quarter, 44% visible
Pressure 29.90 in
Visibility 10.0 miles
Clouds Clear
Dew Point 42 °F
Humidity 53%
Rainfall 0.00 in
Snow Depth 0 in , 1 in , 0 in
UV 2 out of 12
Pollen 7.20 out of 12
PM2.5 Moderate
Flu Activity Not available.
METAR KSFF 161553Z 00000KT 10SM CLR 16/05 A2992 RMK AO2 SLP125 T01610050

More Conditions Fewer Conditions

Pressure 29.90 in
Visibility 10.0 miles
Clouds Clear
Dew Point 42 °F
Humidity 53%
Rainfall 0.00 in
Snow Depth 0 in , 1 in , 0 in
UV 2 out of 12
Pollen 7.20 out of 12
PM2.5 Moderate
Flu Activity Not available.
METAR KSFF 161553Z 00000KT 10SM CLR 16/05 A2992 RMK AO2 SLP125 T01610050

More Conditions Fewer Conditions

10-Day Weather Forecast

Almanac

Astronomy

Sep. 16, 2014 Rise Set
Actual Time 6:28 AM PDT 6:59 PM PDT
Civil Twilight 5:57 AM PDT 7:30 PM PDT
Nautical Twilight 5:20 AM PDT 8:07 PM PDT
Astronomical Twilight 4:42 AM PDT 8:45 PM PDT
Moon No Moon Rise 2:45 PM PDT
Length of Visible Light 13h 33m
Length of Day
12h 31m
Tomorrow will be 3m 25s shorter.
Last Quarter, 44% of the Moon is Illuminated
Today
Last Quarter
Sep 24
New
Oct 1
First Quarter
Oct 8
Full
Oct 15
Last Quarter

Today's Extremes

State Highs State Lows

Community

WunderPhotos

Upload Photos

1,753,823 photos uploaded!

Nearby

Air Quality

  Air Quality AQ Index Pollutant
Yesterday Good
PM10
Yesterday Good
OZONE
Current Moderate
PM2.5
Tuesday Good
PM10
Tuesday Good
OZONE

Snow Depth

Station Depth Elevation
Pope Ridge 0 in 3540 ft
Pigtail Peak 1 in 5900 ft
Meadows Pass 0 in 3500 ft
Harts Pass 0 in 6500 ft
Elbow Lake 0 in 3200 ft

Earthquake Activity

City Distance Mag. Time & Date
No recent earthquake activity has been reported nearby.
Minimum magnitude displayed is 2.5.

Coastal Water Temperatures

Place Temperature
No Stations Reporting

Nearby Weather Stations